sensor_id;sensor_type;location;lat;lon;timestamp;P1;durP1;ratioP1;P2;durP2;ratioP2
23506;SDS011;11930;53.076;18.250;2022-11-12T00:01:19;20.03;;;9.93;;
23506;SDS011;11930;53.076;18.250;2022-11-12T00:04:03;18.23;;;9.77;;
23506;SDS011;11930;53.076;18.250;2022-11-12T00:06:47;19.20;;;9.97;;
23506;SDS011;11930;53.076;18.250;2022-11-12T00:09:32;18.27;;;10.33;;
23506;SDS011;11930;53.076;18.250;2022-11-12T00:12:16;14.50;;;9.23;;
23506;SDS011;11930;53.076;18.250;2022-11-12T00:15:01;17.67;;;9.63;;
23506;SDS011;11930;53.076;18.250;2022-11-12T00:17:45;16.97;;;9.80;;
23506;SDS011;11930;53.076;18.250;2022-11-12T00:20:30;16.33;;;9.93;;
23506;SDS011;11930;53.076;18.250;2022-11-12T00:23:15;17.43;;;9.43;;
23506;SDS011;11930;53.076;18.250;2022-11-12T00:26:00;18.90;;;9.90;;
23506;SDS011;11930;53.076;18.250;2022-11-12T00:28:45;14.40;;;9.30;;
23506;SDS011;11930;53.076;18.250;2022-11-12T00:31:29;17.73;;;10.40;;
23506;SDS011;11930;53.076;18.250;2022-11-12T00:34:14;18.97;;;10.23;;
23506;SDS011;11930;53.076;18.250;2022-11-12T00:36:59;18.60;;;9.83;;
23506;SDS011;11930;53.076;18.250;2022-11-12T00:39:44;16.43;;;10.60;;
23506;SDS011;11930;53.076;18.250;2022-11-12T00:42:29;17.13;;;9.93;;
23506;SDS011;11930;53.076;18.250;2022-11-12T00:45:14;16.60;;;10.00;;
23506;SDS011;11930;53.076;18.250;2022-11-12T00:47:58;16.40;;;10.43;;
23506;SDS011;11930;53.076;18.250;2022-11-12T00:50:43;17.63;;;10.53;;
23506;SDS011;11930;53.076;18.250;2022-11-12T00:53:27;16.33;;;9.90;;
23506;SDS011;11930;53.076;18.250;2022-11-12T00:56:12;17.23;;;10.43;;
23506;SDS011;11930;53.076;18.250;2022-11-12T00:58:57;18.23;;;10.50;;
23506;SDS011;11930;53.076;18.250;2022-11-12T01:01:42;17.00;;;10.20;;
23506;SDS011;11930;53.076;18.250;2022-11-12T01:04:27;19.17;;;9.93;;
23506;SDS011;11930;53.076;18.250;2022-11-12T01:07:11;15.77;;;10.27;;
23506;SDS011;11930;53.076;18.250;2022-11-12T01:09:58;16.90;;;10.30;;
23506;SDS011;11930;53.076;18.250;2022-11-12T01:12:43;16.63;;;10.60;;
23506;SDS011;11930;53.076;18.250;2022-11-12T01:15:28;17.77;;;11.17;;
23506;SDS011;11930;53.076;18.250;2022-11-12T01:18:13;20.73;;;10.73;;
23506;SDS011;11930;53.076;18.250;2022-11-12T01:21:01;18.57;;;11.20;;
23506;SDS011;11930;53.076;18.250;2022-11-12T01:23:46;19.07;;;12.03;;
23506;SDS011;11930;53.076;18.250;2022-11-12T01:26:31;21.10;;;12.03;;
23506;SDS011;11930;53.076;18.250;2022-11-12T01:29:15;21.83;;;12.70;;
23506;SDS011;11930;53.076;18.250;2022-11-12T01:32:00;18.50;;;11.50;;
23506;SDS011;11930;53.076;18.250;2022-11-12T01:34:45;24.80;;;11.97;;
23506;SDS011;11930;53.076;18.250;2022-11-12T01:37:29;23.30;;;12.53;;
23506;SDS011;11930;53.076;18.250;2022-11-12T01:40:14;20.37;;;11.37;;
23506;SDS011;11930;53.076;18.250;2022-11-12T01:42:59;25.20;;;12.03;;
23506;SDS011;11930;53.076;18.250;2022-11-12T01:45:44;20.77;;;11.00;;
23506;SDS011;11930;53.076;18.250;2022-11-12T01:48:34;26.13;;;13.73;;
23506;SDS011;11930;53.076;18.250;2022-11-12T01:51:24;22.93;;;12.17;;
23506;SDS011;11930;53.076;18.250;2022-11-12T01:54:14;26.17;;;12.23;;
23506;SDS011;11930;53.076;18.250;2022-11-12T01:57:01;24.83;;;12.50;;
23506;SDS011;11930;53.076;18.250;2022-11-12T01:59:46;27.27;;;14.10;;
23506;SDS011;11930;53.076;18.250;2022-11-12T02:02:35;26.20;;;12.77;;
23506;SDS011;11930;53.076;18.250;2022-11-12T02:05:20;28.57;;;14.53;;
23506;SDS011;11930;53.076;18.250;2022-11-12T02:08:07;32.30;;;14.57;;
23506;SDS011;11930;53.076;18.250;2022-11-12T02:10:56;28.77;;;14.67;;
23506;SDS011;11930;53.076;18.250;2022-11-12T02:13:41;28.67;;;14.10;;
23506;SDS011;11930;53.076;18.250;2022-11-12T02:16:44;30.47;;;14.87;;
23506;SDS011;11930;53.076;18.250;2022-11-12T02:19:31;28.97;;;15.10;;
23506;SDS011;11930;53.076;18.250;2022-11-12T02:22:20;35.50;;;16.13;;
23506;SDS011;11930;53.076;18.250;2022-11-12T02:25:06;32.67;;;16.00;;
23506;SDS011;11930;53.076;18.250;2022-11-12T02:27:55;33.30;;;16.87;;
23506;SDS011;11930;53.076;18.250;2022-11-12T02:30:44;36.43;;;16.67;;
23506;SDS011;11930;53.076;18.250;2022-11-12T02:33:31;35.20;;;17.47;;
23506;SDS011;11930;53.076;18.250;2022-11-12T02:36:16;30.17;;;16.63;;
23506;SDS011;11930;53.076;18.250;2022-11-12T02:39:00;31.40;;;16.50;;
23506;SDS011;11930;53.076;18.250;2022-11-12T02:41:45;29.63;;;16.47;;
23506;SDS011;11930;53.076;18.250;2022-11-12T02:44:30;31.20;;;16.07;;
23506;SDS011;11930;53.076;18.250;2022-11-12T02:47:14;33.20;;;18.27;;
23506;SDS011;11930;53.076;18.250;2022-11-12T02:49:59;33.10;;;17.23;;
23506;SDS011;11930;53.076;18.250;2022-11-12T02:52:43;31.10;;;16.60;;
23506;SDS011;11930;53.076;18.250;2022-11-12T02:55:28;32.80;;;16.37;;
23506;SDS011;11930;53.076;18.250;2022-11-12T02:58:13;33.57;;;17.60;;
23506;SDS011;11930;53.076;18.250;2022-11-12T03:00:57;31.07;;;16.13;;
23506;SDS011;11930;53.076;18.250;2022-11-12T03:03:42;33.93;;;17.17;;
23506;SDS011;11930;53.076;18.250;2022-11-12T03:06:28;33.53;;;17.17;;
23506;SDS011;11930;53.076;18.250;2022-11-12T03:09:12;31.23;;;17.43;;
23506;SDS011;11930;53.076;18.250;2022-11-12T03:11:57;32.97;;;18.13;;
23506;SDS011;11930;53.076;18.250;2022-11-12T03:14:52;31.10;;;17.23;;
23506;SDS011;11930;53.076;18.250;2022-11-12T03:17:40;30.13;;;17.00;;
23506;SDS011;11930;53.076;18.250;2022-11-12T03:20:25;27.43;;;16.20;;
23506;SDS011;11930;53.076;18.250;2022-11-12T03:23:09;28.47;;;15.93;;
23506;SDS011;11930;53.076;18.250;2022-11-12T03:25:54;27.13;;;16.10;;
23506;SDS011;11930;53.076;18.250;2022-11-12T03:28:39;27.17;;;16.03;;
23506;SDS011;11930;53.076;18.250;2022-11-12T03:31:28;29.00;;;16.73;;
23506;SDS011;11930;53.076;18.250;2022-11-12T03:34:12;27.83;;;16.57;;
23506;SDS011;11930;53.076;18.250;2022-11-12T03:36:57;25.77;;;16.30;;
23506;SDS011;11930;53.076;18.250;2022-11-12T03:39:42;25.90;;;15.80;;
23506;SDS011;11930;53.076;18.250;2022-11-12T03:42:26;25.27;;;15.13;;
23506;SDS011;11930;53.076;18.250;2022-11-12T03:45:11;25.73;;;15.50;;
23506;SDS011;11930;53.076;18.250;2022-11-12T03:47:56;28.17;;;15.53;;
23506;SDS011;11930;53.076;18.250;2022-11-12T03:50:41;23.63;;;14.83;;
23506;SDS011;11930;53.076;18.250;2022-11-12T03:53:26;26.80;;;14.07;;
23506;SDS011;11930;53.076;18.250;2022-11-12T03:56:11;20.47;;;12.73;;
23506;SDS011;11930;53.076;18.250;2022-11-12T03:58:55;18.13;;;11.73;;
23506;SDS011;11930;53.076;18.250;2022-11-12T04:02:29;17.93;;;11.30;;
23506;SDS011;11930;53.076;18.250;2022-11-12T04:09:13;18.47;;;12.00;;
23506;SDS011;11930;53.076;18.250;2022-11-12T04:12:01;21.93;;;12.43;;
23506;SDS011;11930;53.076;18.250;2022-11-12T04:15:07;17.10;;;10.33;;
23506;SDS011;11930;53.076;18.250;2022-11-12T04:17:54;17.80;;;11.10;;
23506;SDS011;11930;53.076;18.250;2022-11-12T04:20:57;21.03;;;12.10;;
23506;SDS011;11930;53.076;18.250;2022-11-12T04:24:01;18.87;;;10.77;;
23506;SDS011;11930;53.076;18.250;2022-11-12T04:26:45;19.33;;;11.10;;
23506;SDS011;11930;53.076;18.250;2022-11-12T04:29:30;19.47;;;10.57;;
23506;SDS011;11930;53.076;18.250;2022-11-12T04:32:37;19.93;;;11.30;;
23506;SDS011;11930;53.076;18.250;2022-11-12T04:35:24;20.17;;;12.50;;
23506;SDS011;11930;53.076;18.250;2022-11-12T04:38:09;20.90;;;12.50;;
23506;SDS011;11930;53.076;18.250;2022-11-12T04:40:54;24.80;;;13.73;;
23506;SDS011;11930;53.076;18.250;2022-11-12T04:43:57;21.90;;;13.23;;
23506;SDS011;11930;53.076;18.250;2022-11-12T04:47:00;24.30;;;13.90;;
23506;SDS011;11930;53.076;18.250;2022-11-12T04:49:45;22.10;;;12.80;;
23506;SDS011;11930;53.076;18.250;2022-11-12T04:52:29;24.10;;;14.03;;
23506;SDS011;11930;53.076;18.250;2022-11-12T04:55:14;24.33;;;13.90;;
23506;SDS011;11930;53.076;18.250;2022-11-12T04:57:59;22.97;;;12.30;;
23506;SDS011;11930;53.076;18.250;2022-11-12T05:00:43;20.17;;;12.07;;
23506;SDS011;11930;53.076;18.250;2022-11-12T05:03:37;17.90;;;11.60;;
23506;SDS011;11930;53.076;18.250;2022-11-12T05:06:21;21.37;;;12.83;;
23506;SDS011;11930;53.076;18.250;2022-11-12T05:09:26;20.27;;;12.57;;
23506;SDS011;11930;53.076;18.250;2022-11-12T05:12:12;21.37;;;12.67;;
23506;SDS011;11930;53.076;18.250;2022-11-12T05:14:56;21.40;;;12.07;;
23506;SDS011;11930;53.076;18.250;2022-11-12T05:17:41;20.63;;;12.30;;
23506;SDS011;11930;53.076;18.250;2022-11-12T05:20:26;21.50;;;11.73;;
23506;SDS011;11930;53.076;18.250;2022-11-12T05:23:11;20.53;;;11.83;;
23506;SDS011;11930;53.076;18.250;2022-11-12T05:25:55;22.37;;;12.30;;
23506;SDS011;11930;53.076;18.250;2022-11-12T05:28:39;21.10;;;12.30;;
23506;SDS011;11930;53.076;18.250;2022-11-12T05:31:24;18.10;;;11.20;;
23506;SDS011;11930;53.076;18.250;2022-11-12T05:34:08;20.63;;;11.53;;
23506;SDS011;11930;53.076;18.250;2022-11-12T05:36:54;19.30;;;11.33;;
23506;SDS011;11930;53.076;18.250;2022-11-12T05:39:38;17.00;;;10.30;;
23506;SDS011;11930;53.076;18.250;2022-11-12T05:42:23;17.63;;;10.63;;
23506;SDS011;11930;53.076;18.250;2022-11-12T05:45:07;16.47;;;9.40;;
23506;SDS011;11930;53.076;18.250;2022-11-12T05:47:52;17.60;;;9.97;;
23506;SDS011;11930;53.076;18.250;2022-11-12T05:50:36;19.50;;;9.83;;
23506;SDS011;11930;53.076;18.250;2022-11-12T05:53:21;17.23;;;10.20;;
23506;SDS011;11930;53.076;18.250;2022-11-12T05:56:06;17.63;;;10.17;;
23506;SDS011;11930;53.076;18.250;2022-11-12T05:58:52;19.73;;;9.40;;
23506;SDS011;11930;53.076;18.250;2022-11-12T06:01:36;17.33;;;10.40;;
23506;SDS011;11930;53.076;18.250;2022-11-12T06:04:27;15.37;;;9.67;;
23506;SDS011;11930;53.076;18.250;2022-11-12T06:07:11;14.47;;;8.97;;
23506;SDS011;11930;53.076;18.250;2022-11-12T06:09:56;14.73;;;8.83;;
23506;SDS011;11930;53.076;18.250;2022-11-12T06:12:41;17.67;;;8.77;;
23506;SDS011;11930;53.076;18.250;2022-11-12T06:15:25;13.33;;;8.30;;
23506;SDS011;11930;53.076;18.250;2022-11-12T06:18:10;14.57;;;8.67;;
23506;SDS011;11930;53.076;18.250;2022-11-12T06:21:01;16.30;;;8.57;;
23506;SDS011;11930;53.076;18.250;2022-11-12T06:24:06;17.20;;;9.10;;
23506;SDS011;11930;53.076;18.250;2022-11-12T06:26:50;13.30;;;8.10;;
23506;SDS011;11930;53.076;18.250;2022-11-12T06:29:41;14.27;;;8.20;;
23506;SDS011;11930;53.076;18.250;2022-11-12T06:32:26;13.27;;;8.20;;
23506;SDS011;11930;53.076;18.250;2022-11-12T06:35:10;13.17;;;7.63;;
23506;SDS011;11930;53.076;18.250;2022-11-12T06:37:55;13.33;;;8.03;;
23506;SDS011;11930;53.076;18.250;2022-11-12T06:40:40;12.93;;;7.50;;
23506;SDS011;11930;53.076;18.250;2022-11-12T06:43:26;14.87;;;7.97;;
23506;SDS011;11930;53.076;18.250;2022-11-12T06:46:13;12.90;;;7.57;;
23506;SDS011;11930;53.076;18.250;2022-11-12T06:48:59;14.70;;;7.80;;
23506;SDS011;11930;53.076;18.250;2022-11-12T06:51:43;12.60;;;7.57;;
23506;SDS011;11930;53.076;18.250;2022-11-12T06:54:28;11.60;;;7.33;;
23506;SDS011;11930;53.076;18.250;2022-11-12T06:57:15;14.00;;;7.90;;
23506;SDS011;11930;53.076;18.250;2022-11-12T07:00:00;13.43;;;6.90;;
23506;SDS011;11930;53.076;18.250;2022-11-12T07:02:44;12.27;;;7.27;;
23506;SDS011;11930;53.076;18.250;2022-11-12T07:05:29;12.87;;;7.10;;
23506;SDS011;11930;53.076;18.250;2022-11-12T07:08:13;11.03;;;6.73;;
23506;SDS011;11930;53.076;18.250;2022-11-12T07:10:58;14.67;;;7.47;;
23506;SDS011;11930;53.076;18.250;2022-11-12T07:13:43;12.27;;;6.93;;
23506;SDS011;11930;53.076;18.250;2022-11-12T07:16:28;15.90;;;7.80;;
23506;SDS011;11930;53.076;18.250;2022-11-12T07:19:13;12.67;;;6.80;;
23506;SDS011;11930;53.076;18.250;2022-11-12T07:21:58;13.80;;;7.57;;
23506;SDS011;11930;53.076;18.250;2022-11-12T07:24:42;12.03;;;7.23;;
23506;SDS011;11930;53.076;18.250;2022-11-12T07:27:30;13.37;;;7.67;;
23506;SDS011;11930;53.076;18.250;2022-11-12T07:30:15;11.50;;;7.07;;
23506;SDS011;11930;53.076;18.250;2022-11-12T07:33:00;12.93;;;7.40;;
23506;SDS011;11930;53.076;18.250;2022-11-12T07:35:44;14.73;;;7.67;;
23506;SDS011;11930;53.076;18.250;2022-11-12T07:38:30;13.47;;;7.10;;
23506;SDS011;11930;53.076;18.250;2022-11-12T07:41:16;13.60;;;8.27;;
23506;SDS011;11930;53.076;18.250;2022-11-12T07:44:04;19.00;;;7.60;;
23506;SDS011;11930;53.076;18.250;2022-11-12T07:46:58;12.63;;;8.00;;
23506;SDS011;11930;53.076;18.250;2022-11-12T07:49:46;15.73;;;8.97;;
23506;SDS011;11930;53.076;18.250;2022-11-12T07:52:31;14.87;;;8.43;;
23506;SDS011;11930;53.076;18.250;2022-11-12T07:55:16;16.90;;;9.30;;
23506;SDS011;11930;53.076;18.250;2022-11-12T07:58:01;13.23;;;8.13;;
23506;SDS011;11930;53.076;18.250;2022-11-12T08:00:45;16.73;;;9.03;;
23506;SDS011;11930;53.076;18.250;2022-11-12T08:03:30;15.83;;;8.90;;
23506;SDS011;11930;53.076;18.250;2022-11-12T08:06:14;17.67;;;9.67;;
23506;SDS011;11930;53.076;18.250;2022-11-12T08:09:00;16.57;;;9.23;;
23506;SDS011;11930;53.076;18.250;2022-11-12T08:11:45;16.10;;;9.40;;
23506;SDS011;11930;53.076;18.250;2022-11-12T08:14:29;16.80;;;9.53;;
23506;SDS011;11930;53.076;18.250;2022-11-12T08:17:14;16.33;;;9.30;;
23506;SDS011;11930;53.076;18.250;2022-11-12T08:19:59;17.13;;;9.70;;
23506;SDS011;11930;53.076;18.250;2022-11-12T08:22:43;19.37;;;9.80;;
23506;SDS011;11930;53.076;18.250;2022-11-12T08:25:28;21.33;;;10.70;;
23506;SDS011;11930;53.076;18.250;2022-11-12T08:28:13;18.67;;;9.97;;
23506;SDS011;11930;53.076;18.250;2022-11-12T08:31:01;18.87;;;10.73;;
23506;SDS011;11930;53.076;18.250;2022-11-12T08:33:48;17.77;;;10.27;;
23506;SDS011;11930;53.076;18.250;2022-11-12T08:36:33;22.47;;;11.73;;
23506;SDS011;11930;53.076;18.250;2022-11-12T08:39:18;20.83;;;10.87;;
23506;SDS011;11930;53.076;18.250;2022-11-12T08:42:02;20.27;;;10.30;;
23506;SDS011;11930;53.076;18.250;2022-11-12T08:44:47;19.90;;;11.03;;
23506;SDS011;11930;53.076;18.250;2022-11-12T08:47:31;22.47;;;12.20;;
23506;SDS011;11930;53.076;18.250;2022-11-12T08:50:16;17.83;;;11.03;;
23506;SDS011;11930;53.076;18.250;2022-11-12T08:53:05;19.73;;;10.83;;
23506;SDS011;11930;53.076;18.250;2022-11-12T08:55:52;23.00;;;11.27;;
23506;SDS011;11930;53.076;18.250;2022-11-12T08:58:38;22.03;;;11.70;;
23506;SDS011;11930;53.076;18.250;2022-11-12T09:01:23;21.67;;;10.40;;
23506;SDS011;11930;53.076;18.250;2022-11-12T09:04:07;21.10;;;10.57;;
23506;SDS011;11930;53.076;18.250;2022-11-12T09:06:53;23.00;;;12.87;;
23506;SDS011;11930;53.076;18.250;2022-11-12T09:09:39;18.73;;;9.83;;
23506;SDS011;11930;53.076;18.250;2022-11-12T09:12:24;16.20;;;9.63;;
23506;SDS011;11930;53.076;18.250;2022-11-12T09:15:08;21.17;;;11.20;;
23506;SDS011;11930;53.076;18.250;2022-11-12T09:17:57;18.33;;;9.93;;
23506;SDS011;11930;53.076;18.250;2022-11-12T09:20:43;17.07;;;9.70;;
23506;SDS011;11930;53.076;18.250;2022-11-12T09:23:28;16.37;;;9.43;;
23506;SDS011;11930;53.076;18.250;2022-11-12T09:26:13;19.03;;;9.70;;
23506;SDS011;11930;53.076;18.250;2022-11-12T09:29:00;16.83;;;8.97;;
23506;SDS011;11930;53.076;18.250;2022-11-12T09:31:44;17.40;;;9.57;;
23506;SDS011;11930;53.076;18.250;2022-11-12T09:34:29;16.10;;;7.73;;
23506;SDS011;11930;53.076;18.250;2022-11-12T09:37:13;16.87;;;7.93;;
23506;SDS011;11930;53.076;18.250;2022-11-12T09:39:58;14.50;;;8.30;;
23506;SDS011;11930;53.076;18.250;2022-11-12T09:42:43;16.00;;;7.93;;
23506;SDS011;11930;53.076;18.250;2022-11-12T09:45:32;16.10;;;8.00;;
23506;SDS011;11930;53.076;18.250;2022-11-12T09:48:19;13.77;;;7.63;;
23506;SDS011;11930;53.076;18.250;2022-11-12T09:51:20;14.87;;;7.80;;
23506;SDS011;11930;53.076;18.250;2022-11-12T09:57:04;18.70;;;8.17;;
23506;SDS011;11930;53.076;18.250;2022-11-12T09:59:54;16.80;;;8.97;;
23506;SDS011;11930;53.076;18.250;2022-11-12T10:02:41;14.90;;;8.40;;
23506;SDS011;11930;53.076;18.250;2022-11-12T10:09:00;17.93;;;8.90;;
23506;SDS011;11930;53.076;18.250;2022-11-12T10:12:02;18.43;;;9.00;;
23506;SDS011;11930;53.076;18.250;2022-11-12T10:18:42;15.67;;;8.50;;
23506;SDS011;11930;53.076;18.250;2022-11-12T10:24:36;16.30;;;8.53;;
23506;SDS011;11930;53.076;18.250;2022-11-12T10:27:23;16.23;;;8.80;;
23506;SDS011;11930;53.076;18.250;2022-11-12T10:30:16;17.23;;;9.00;;
23506;SDS011;11930;53.076;18.250;2022-11-12T10:33:02;15.23;;;8.47;;
23506;SDS011;11930;53.076;18.250;2022-11-12T10:35:47;15.77;;;8.30;;
23506;SDS011;11930;53.076;18.250;2022-11-12T10:38:32;13.97;;;8.90;;
23506;SDS011;11930;53.076;18.250;2022-11-12T10:41:22;18.23;;;9.90;;
23506;SDS011;11930;53.076;18.250;2022-11-12T10:44:15;13.90;;;8.70;;
23506;SDS011;11930;53.076;18.250;2022-11-12T10:53:03;18.93;;;9.60;;
23506;SDS011;11930;53.076;18.250;2022-11-12T10:55:56;17.40;;;8.67;;
23506;SDS011;11930;53.076;18.250;2022-11-12T10:58:44;14.33;;;8.83;;
23506;SDS011;11930;53.076;18.250;2022-11-12T11:01:30;20.23;;;10.43;;
23506;SDS011;11930;53.076;18.250;2022-11-12T11:04:16;19.73;;;8.93;;
23506;SDS011;11930;53.076;18.250;2022-11-12T11:07:19;20.50;;;9.43;;
23506;SDS011;11930;53.076;18.250;2022-11-12T11:10:11;13.10;;;8.57;;
23506;SDS011;11930;53.076;18.250;2022-11-12T11:13:19;18.23;;;8.57;;
23506;SDS011;11930;53.076;18.250;2022-11-12T11:16:06;14.67;;;8.57;;
23506;SDS011;11930;53.076;18.250;2022-11-12T11:30:40;16.60;;;9.60;;
23506;SDS011;11930;53.076;18.250;2022-11-12T11:33:54;19.73;;;10.00;;
23506;SDS011;11930;53.076;18.250;2022-11-12T11:36:51;18.97;;;10.17;;
23506;SDS011;11930;53.076;18.250;2022-11-12T11:40:45;21.43;;;9.37;;
23506;SDS011;11930;53.076;18.250;2022-11-12T11:46:24;15.63;;;9.47;;
23506;SDS011;11930;53.076;18.250;2022-11-12T12:04:49;15.60;;;8.40;;
23506;SDS011;11930;53.076;18.250;2022-11-12T12:07:48;15.17;;;7.93;;
23506;SDS011;11930;53.076;18.250;2022-11-12T12:23:12;12.73;;;7.17;;
23506;SDS011;11930;53.076;18.250;2022-11-12T12:26:14;12.97;;;6.73;;
23506;SDS011;11930;53.076;18.250;2022-11-12T12:32:01;12.17;;;7.43;;
23506;SDS011;11930;53.076;18.250;2022-11-12T12:38:37;15.60;;;7.30;;
23506;SDS011;11930;53.076;18.250;2022-11-12T12:41:44;12.83;;;7.20;;
23506;SDS011;11930;53.076;18.250;2022-11-12T12:44:53;14.43;;;7.20;;
23506;SDS011;11930;53.076;18.250;2022-11-12T12:47:43;15.07;;;7.30;;
23506;SDS011;11930;53.076;18.250;2022-11-12T12:50:30;12.13;;;6.53;;
23506;SDS011;11930;53.076;18.250;2022-11-12T12:56:01;18.00;;;7.47;;
23506;SDS011;11930;53.076;18.250;2022-11-12T12:59:17;16.33;;;6.90;;
23506;SDS011;11930;53.076;18.250;2022-11-12T13:02:18;12.67;;;7.03;;
23506;SDS011;11930;53.076;18.250;2022-11-12T13:05:04;15.50;;;8.73;;
23506;SDS011;11930;53.076;18.250;2022-11-12T13:07:49;14.00;;;7.57;;
23506;SDS011;11930;53.076;18.250;2022-11-12T13:16:04;13.80;;;7.50;;
23506;SDS011;11930;53.076;18.250;2022-11-12T13:21:34;16.77;;;7.10;;
23506;SDS011;11930;53.076;18.250;2022-11-12T13:24:21;13.63;;;7.33;;
23506;SDS011;11930;53.076;18.250;2022-11-12T13:33:19;16.33;;;7.77;;
23506;SDS011;11930;53.076;18.250;2022-11-12T13:36:43;12.60;;;7.77;;
23506;SDS011;11930;53.076;18.250;2022-11-12T13:39:21;13.30;;;7.80;;
23506;SDS011;11930;53.076;18.250;2022-11-12T13:42:11;17.73;;;9.40;;
23506;SDS011;11930;53.076;18.250;2022-11-12T13:45:20;27.43;;;13.53;;
23506;SDS011;11930;53.076;18.250;2022-11-12T13:48:07;25.60;;;12.57;;
23506;SDS011;11930;53.076;18.250;2022-11-12T13:50:57;21.23;;;11.97;;
23506;SDS011;11930;53.076;18.250;2022-11-12T13:53:46;19.37;;;11.10;;
23506;SDS011;11930;53.076;18.250;2022-11-12T13:56:31;16.57;;;9.17;;
23506;SDS011;11930;53.076;18.250;2022-11-12T13:59:19;14.13;;;7.77;;
23506;SDS011;11930;53.076;18.250;2022-11-12T14:02:40;15.53;;;7.70;;
23506;SDS011;11930;53.076;18.250;2022-11-12T14:05:21;18.80;;;8.97;;
23506;SDS011;11930;53.076;18.250;2022-11-12T14:11:15;15.53;;;7.83;;
23506;SDS011;11930;53.076;18.250;2022-11-12T14:20:34;16.00;;;8.00;;
23506;SDS011;11930;53.076;18.250;2022-11-12T14:23:20;15.13;;;8.60;;
23506;SDS011;11930;53.076;18.250;2022-11-12T14:26:06;14.33;;;8.20;;
23506;SDS011;11930;53.076;18.250;2022-11-12T14:28:57;16.57;;;8.60;;
23506;SDS011;11930;53.076;18.250;2022-11-12T14:31:42;15.63;;;9.03;;
23506;SDS011;11930;53.076;18.250;2022-11-12T14:34:29;17.17;;;8.73;;
23506;SDS011;11930;53.076;18.250;2022-11-12T14:37:35;14.87;;;8.63;;
23506;SDS011;11930;53.076;18.250;2022-11-12T14:40:22;16.07;;;9.23;;
23506;SDS011;11930;53.076;18.250;2022-11-12T14:43:21;20.40;;;9.27;;
23506;SDS011;11930;53.076;18.250;2022-11-12T14:46:28;22.83;;;9.40;;
23506;SDS011;11930;53.076;18.250;2022-11-12T14:52:36;18.13;;;9.70;;
23506;SDS011;11930;53.076;18.250;2022-11-12T14:55:27;15.83;;;9.23;;
23506;SDS011;11930;53.076;18.250;2022-11-12T14:58:20;18.27;;;10.73;;
23506;SDS011;11930;53.076;18.250;2022-11-12T15:01:17;19.30;;;11.00;;
23506;SDS011;11930;53.076;18.250;2022-11-12T15:06:56;65.23;;;36.37;;
23506;SDS011;11930;53.076;18.250;2022-11-12T15:09:41;25.07;;;13.87;;
23506;SDS011;11930;53.076;18.250;2022-11-12T15:12:27;24.83;;;12.63;;
23506;SDS011;11930;53.076;18.250;2022-11-12T15:15:18;25.43;;;13.00;;
23506;SDS011;11930;53.076;18.250;2022-11-12T15:18:06;25.10;;;13.23;;
23506;SDS011;11930;53.076;18.250;2022-11-12T15:21:21;23.77;;;13.30;;
23506;SDS011;11930;53.076;18.250;2022-11-12T15:27:01;25.43;;;13.17;;
23506;SDS011;11930;53.076;18.250;2022-11-12T15:33:06;21.87;;;13.10;;
23506;SDS011;11930;53.076;18.250;2022-11-12T15:35:59;25.77;;;13.57;;
23506;SDS011;11930;53.076;18.250;2022-11-12T15:38:51;26.50;;;15.37;;
23506;SDS011;11930;53.076;18.250;2022-11-12T15:41:37;30.43;;;16.80;;
23506;SDS011;11930;53.076;18.250;2022-11-12T15:44:23;34.70;;;21.07;;
23506;SDS011;11930;53.076;18.250;2022-11-12T15:47:16;30.87;;;17.20;;
23506;SDS011;11930;53.076;18.250;2022-11-12T15:50:14;33.33;;;17.37;;
23506;SDS011;11930;53.076;18.250;2022-11-12T15:53:02;35.87;;;18.47;;
23506;SDS011;11930;53.076;18.250;2022-11-12T15:55:46;37.20;;;19.30;;
23506;SDS011;11930;53.076;18.250;2022-11-12T15:58:33;50.40;;;26.90;;
23506;SDS011;11930;53.076;18.250;2022-11-12T16:01:20;39.90;;;22.03;;
23506;SDS011;11930;53.076;18.250;2022-11-12T16:04:04;47.20;;;25.87;;
23506;SDS011;11930;53.076;18.250;2022-11-12T16:06:49;55.47;;;30.80;;
23506;SDS011;11930;53.076;18.250;2022-11-12T16:09:33;47.07;;;23.40;;
23506;SDS011;11930;53.076;18.250;2022-11-12T16:12:18;39.63;;;21.03;;
23506;SDS011;11930;53.076;18.250;2022-11-12T16:15:04;39.43;;;20.43;;
23506;SDS011;11930;53.076;18.250;2022-11-12T16:17:56;34.20;;;19.17;;
23506;SDS011;11930;53.076;18.250;2022-11-12T16:20:40;34.27;;;20.03;;
23506;SDS011;11930;53.076;18.250;2022-11-12T16:23:25;40.13;;;21.97;;
23506;SDS011;11930;53.076;18.250;2022-11-12T16:26:10;40.80;;;21.20;;
23506;SDS011;11930;53.076;18.250;2022-11-12T16:29:09;38.60;;;20.77;;
23506;SDS011;11930;53.076;18.250;2022-11-12T16:31:58;36.43;;;19.93;;
23506;SDS011;11930;53.076;18.250;2022-11-12T16:34:43;32.43;;;19.63;;
23506;SDS011;11930;53.076;18.250;2022-11-12T16:37:27;34.73;;;21.00;;
23506;SDS011;11930;53.076;18.250;2022-11-12T16:40:13;33.13;;;19.87;;
23506;SDS011;11930;53.076;18.250;2022-11-12T16:43:00;31.73;;;19.13;;
23506;SDS011;11930;53.076;18.250;2022-11-12T16:45:45;32.27;;;17.33;;
23506;SDS011;11930;53.076;18.250;2022-11-12T16:48:29;29.63;;;17.47;;
23506;SDS011;11930;53.076;18.250;2022-11-12T16:51:16;34.00;;;19.33;;
23506;SDS011;11930;53.076;18.250;2022-11-12T16:54:02;55.27;;;29.77;;
23506;SDS011;11930;53.076;18.250;2022-11-12T16:56:47;32.87;;;18.13;;
23506;SDS011;11930;53.076;18.250;2022-11-12T16:59:32;31.03;;;16.57;;
23506;SDS011;11930;53.076;18.250;2022-11-12T17:02:17;31.30;;;17.57;;
23506;SDS011;11930;53.076;18.250;2022-11-12T17:05:06;34.13;;;17.87;;
23506;SDS011;11930;53.076;18.250;2022-11-12T17:07:58;34.53;;;18.43;;
23506;SDS011;11930;53.076;18.250;2022-11-12T17:10:43;45.00;;;20.67;;
23506;SDS011;11930;53.076;18.250;2022-11-12T17:13:28;47.90;;;22.00;;
23506;SDS011;11930;53.076;18.250;2022-11-12T17:16:13;35.13;;;18.83;;
23506;SDS011;11930;53.076;18.250;2022-11-12T17:18:58;41.73;;;22.00;;
23506;SDS011;11930;53.076;18.250;2022-11-12T17:21:44;41.37;;;21.23;;
23506;SDS011;11930;53.076;18.250;2022-11-12T17:24:29;43.33;;;21.10;;
23506;SDS011;11930;53.076;18.250;2022-11-12T17:27:13;33.47;;;18.40;;
23506;SDS011;11930;53.076;18.250;2022-11-12T17:30:01;36.40;;;20.13;;
23506;SDS011;11930;53.076;18.250;2022-11-12T17:32:46;38.90;;;20.20;;
23506;SDS011;11930;53.076;18.250;2022-11-12T17:35:32;33.50;;;19.47;;
23506;SDS011;11930;53.076;18.250;2022-11-12T17:38:19;33.97;;;19.93;;
23506;SDS011;11930;53.076;18.250;2022-11-12T17:41:04;36.80;;;18.80;;
23506;SDS011;11930;53.076;18.250;2022-11-12T17:43:55;29.23;;;17.87;;
23506;SDS011;11930;53.076;18.250;2022-11-12T17:46:41;39.13;;;19.80;;
23506;SDS011;11930;53.076;18.250;2022-11-12T17:49:27;38.27;;;18.83;;
23506;SDS011;11930;53.076;18.250;2022-11-12T17:52:12;37.73;;;20.27;;
23506;SDS011;11930;53.076;18.250;2022-11-12T17:54:57;34.20;;;19.80;;
23506;SDS011;11930;53.076;18.250;2022-11-12T17:57:42;37.83;;;21.23;;
23506;SDS011;11930;53.076;18.250;2022-11-12T18:00:27;39.60;;;21.50;;
23506;SDS011;11930;53.076;18.250;2022-11-12T18:03:12;40.63;;;21.77;;
23506;SDS011;11930;53.076;18.250;2022-11-12T18:05:57;42.23;;;22.23;;